createdAt,value
2019-02-22T00:02:30.765Z,24.57
2019-02-22T00:05:00.323Z,23.63
2019-02-22T00:07:29.824Z,21.80
2019-02-22T00:09:59.289Z,20.77
2019-02-22T00:12:28.748Z,22.20
2019-02-22T00:14:58.196Z,22.07
2019-02-22T00:17:27.673Z,21.47
2019-02-22T00:19:57.135Z,21.37
2019-02-22T00:22:26.567Z,20.87
2019-02-22T00:24:56.039Z,19.87
2019-02-22T00:27:25.513Z,20.83
2019-02-22T00:29:54.976Z,20.60
2019-02-22T00:32:24.423Z,19.23
2019-02-22T00:34:53.958Z,16.37
2019-02-22T00:37:23.474Z,16.67
2019-02-22T00:39:52.925Z,14.73
2019-02-22T00:42:22.471Z,14.13
2019-02-22T00:44:52.047Z,14.00
2019-02-22T00:47:21.634Z,13.90
2019-02-22T00:49:51.187Z,13.13
2019-02-22T00:52:20.776Z,13.07
2019-02-22T00:54:50.234Z,13.27
2019-02-22T00:57:19.692Z,12.23
2019-02-22T00:59:49.209Z,12.90
2019-02-22T01:02:18.743Z,12.13
2019-02-22T01:04:48.405Z,12.10
2019-02-22T01:07:17.975Z,12.30
2019-02-22T01:09:47.520Z,13.23
2019-02-22T01:12:17.181Z,12.43
2019-02-22T01:14:46.680Z,11.17
2019-02-22T01:17:16.270Z,11.57
2019-02-22T01:19:45.866Z,11.77
2019-02-22T01:22:15.472Z,11.20
2019-02-22T01:24:45.388Z,10.67
2019-02-22T01:27:14.983Z,10.27
2019-02-22T01:29:44.561Z,10.23
2019-02-22T01:32:14.065Z,10.07
2019-02-22T01:34:43.723Z,10.83
2019-02-22T01:37:13.339Z,11.90
2019-02-22T01:39:42.878Z,13.67
2019-02-22T01:42:12.469Z,11.93
2019-02-22T01:44:42.110Z,12.00
2019-02-22T01:47:11.689Z,12.50
2019-02-22T01:49:41.255Z,11.47
2019-02-22T01:52:10.874Z,11.20
2019-02-22T01:54:40.429Z,9.63
2019-02-22T01:57:09.965Z,8.77
2019-02-22T01:59:39.487Z,9.00
2019-02-22T02:02:09.136Z,7.87
2019-02-22T02:04:38.846Z,8.50
2019-02-22T02:07:08.639Z,8.33
2019-02-22T02:09:38.349Z,7.53
2019-02-22T02:12:07.811Z,7.90
2019-02-22T02:14:37.236Z,7.50
2019-02-22T02:17:06.706Z,7.17
2019-02-22T02:19:36.141Z,7.07
2019-02-22T02:22:05.593Z,7.10
2019-02-22T02:24:35.070Z,7.10
2019-02-22T02:27:04.540Z,8.10
2019-02-22T02:29:33.913Z,8.87
2019-02-22T02:32:03.385Z,8.83
2019-02-22T02:34:32.803Z,27.63
2019-02-22T02:37:02.333Z,14.63
2019-02-22T02:39:31.774Z,15.03
2019-02-22T02:42:01.303Z,18.43
2019-02-22T02:44:30.764Z,82.47
2019-02-22T02:47:00.133Z,48.13
2019-02-22T02:49:29.566Z,31.17
2019-02-22T02:51:59.052Z,33.20
2019-02-22T02:54:28.499Z,34.10
2019-02-22T02:56:58.007Z,22.37
2019-02-22T02:59:27.403Z,12.33
2019-02-22T03:01:57.145Z,11.43
2019-02-22T03:04:26.659Z,13.50
2019-02-22T03:07:07.093Z,12.20
2019-02-22T03:09:36.567Z,9.07
2019-02-22T03:12:05.985Z,8.13
2019-02-22T03:14:35.459Z,10.17
2019-02-22T03:17:04.999Z,19.90
2019-02-22T03:19:34.388Z,18.60
2019-02-22T03:22:03.804Z,14.70
2019-02-22T03:24:33.181Z,11.87
2019-02-22T03:27:02.612Z,9.57
2019-02-22T03:29:31.996Z,8.37
2019-02-22T03:32:01.496Z,6.30
2019-02-22T03:34:31.226Z,7.23
2019-02-22T03:37:00.678Z,6.63
2019-02-22T03:39:30.172Z,6.50
2019-02-22T03:42:00.729Z,6.50
2019-02-22T03:44:30.191Z,5.90
2019-02-22T03:46:59.663Z,5.83
2019-02-22T03:49:29.118Z,6.23
2019-02-22T03:52:00.120Z,6.40
2019-02-22T03:54:29.579Z,6.73
2019-02-22T03:56:58.952Z,5.83
2019-02-22T03:59:28.421Z,5.37
2019-02-22T04:01:57.849Z,6.03
2019-02-22T04:04:27.345Z,6.07
2019-02-22T04:06:56.789Z,5.73
2019-02-22T04:09:26.258Z,6.13
2019-02-22T04:11:55.620Z,6.53
2019-02-22T04:14:25.040Z,5.80
2019-02-22T04:16:54.495Z,7.20
2019-02-22T04:19:23.981Z,7.70
2019-02-22T04:21:53.363Z,7.70
2019-02-22T04:24:22.748Z,7.40
2019-02-22T04:26:52.210Z,6.73
2019-02-22T04:29:21.673Z,6.80
2019-02-22T04:31:51.108Z,7.00
2019-02-22T04:34:20.510Z,7.13
2019-02-22T04:36:49.931Z,7.60
2019-02-22T04:39:19.425Z,6.97
2019-02-22T04:41:57.750Z,5.87
2019-02-22T04:44:20.003Z,6.50
2019-02-22T04:46:49.361Z,6.50
2019-02-22T04:49:18.735Z,6.00
2019-02-22T04:51:48.223Z,12.53
2019-02-22T04:54:17.677Z,8.37
2019-02-22T04:56:47.104Z,9.77
2019-02-22T04:59:16.500Z,11.83
2019-02-22T05:01:45.925Z,10.03
2019-02-22T05:04:15.368Z,10.60
2019-02-22T05:06:44.722Z,9.80
2019-02-22T05:09:14.185Z,7.57
2019-02-22T05:11:43.690Z,7.73
2019-02-22T05:14:13.142Z,6.47
2019-02-22T05:16:42.598Z,7.07
2019-02-22T05:19:12.073Z,8.80
2019-02-22T05:21:41.466Z,8.23
2019-02-22T05:24:10.880Z,8.40
2019-02-22T05:26:40.364Z,8.10
2019-02-22T05:29:09.845Z,7.73
2019-02-22T05:31:39.265Z,7.60
2019-02-22T05:34:08.972Z,7.87
2019-02-22T05:36:38.467Z,7.50
2019-02-22T05:39:18.689Z,7.80
2019-02-22T05:41:39.133Z,10.03
2019-02-22T05:44:09.664Z,19.50
2019-02-22T05:46:39.098Z,16.07
2019-02-22T05:49:08.562Z,16.10
2019-02-22T05:51:38.054Z,14.80
2019-02-22T05:54:07.455Z,14.53
2019-02-22T05:56:36.975Z,20.37
2019-02-22T05:59:06.466Z,16.63
2019-02-22T06:01:35.894Z,13.30
2019-02-22T06:04:05.308Z,13.47
2019-02-22T06:06:34.743Z,13.87
2019-02-22T06:09:05.564Z,13.33
2019-02-22T06:11:35.114Z,18.60
2019-02-22T06:14:04.503Z,22.27
2019-02-22T06:16:33.889Z,15.23
2019-02-22T06:19:03.341Z,12.50
2019-02-22T06:21:32.784Z,11.07
2019-02-22T06:24:03.010Z,11.63
2019-02-22T06:26:32.642Z,10.77
2019-02-22T06:29:02.075Z,12.33
2019-02-22T06:31:31.443Z,10.80
2019-02-22T06:34:00.853Z,10.93
2019-02-22T06:36:30.262Z,14.00
2019-02-22T06:38:59.703Z,14.97
2019-02-22T06:41:29.197Z,13.20
2019-02-22T06:43:58.646Z,12.80
2019-02-22T06:46:28.153Z,41.73
2019-02-22T06:48:57.591Z,42.63
2019-02-22T06:51:27.030Z,19.30
2019-02-22T06:53:56.569Z,26.97
2019-02-22T06:56:26.022Z,26.80
2019-02-22T06:58:55.510Z,21.23
2019-02-22T07:01:24.848Z,20.07
2019-02-22T07:03:54.181Z,18.93
2019-02-22T07:06:23.586Z,20.33
2019-02-22T07:08:52.971Z,20.47
2019-02-22T07:11:44.179Z,20.67
2019-02-22T07:14:13.669Z,22.93
2019-02-22T07:16:43.088Z,27.97
2019-02-22T07:19:12.799Z,24.43
2019-02-22T07:21:52.049Z,15.20
2019-02-22T07:24:13.394Z,11.43
2019-02-22T07:26:42.831Z,9.50
2019-02-22T07:29:12.306Z,9.77
2019-02-22T07:31:41.705Z,8.60
2019-02-22T07:34:11.138Z,8.23
2019-02-22T07:36:40.625Z,8.43
2019-02-22T07:39:10.059Z,7.83
2019-02-22T07:41:39.419Z,8.20
2019-02-22T07:44:08.883Z,7.50
2019-02-22T07:46:38.374Z,7.70
2019-02-22T07:49:07.823Z,7.83
2019-02-22T07:51:37.182Z,8.83
2019-02-22T07:54:06.702Z,8.10
2019-02-22T07:56:36.144Z,7.40
2019-02-22T07:59:05.523Z,7.40
2019-02-22T08:01:46.598Z,7.43
2019-02-22T08:04:06.121Z,7.90
2019-02-22T08:06:35.503Z,7.93
2019-02-22T08:09:05.844Z,8.07
2019-02-22T08:11:35.285Z,7.87
2019-02-22T08:14:07.666Z,8.10
2019-02-22T08:16:36.119Z,7.30
2019-02-22T08:19:05.587Z,10.97
2019-02-22T08:21:34.937Z,12.03
2019-02-22T08:24:04.323Z,11.43
2019-02-22T08:26:33.783Z,9.70
2019-02-22T08:29:03.227Z,10.20
2019-02-22T08:31:32.581Z,8.93
2019-02-22T08:34:02.051Z,8.33
2019-02-22T08:36:31.418Z,8.27
2019-02-22T08:39:00.805Z,8.57
2019-02-22T08:41:30.282Z,8.17
2019-02-22T08:43:59.709Z,8.00
2019-02-22T08:46:29.161Z,8.70
2019-02-22T08:48:58.934Z,10.87
2019-02-22T08:51:28.361Z,11.53
2019-02-22T08:53:57.836Z,10.67
2019-02-22T08:56:27.304Z,17.63
2019-02-22T08:58:56.739Z,10.93
2019-02-22T09:01:26.229Z,12.40
2019-02-22T09:03:55.673Z,14.13
2019-02-22T09:06:25.123Z,14.57
2019-02-22T09:08:54.617Z,14.23
2019-02-22T09:11:24.035Z,16.13
2019-02-22T09:13:53.423Z,15.93
2019-02-22T09:16:22.918Z,15.13
2019-02-22T09:18:52.342Z,15.07
2019-02-22T09:21:21.761Z,15.13
2019-02-22T09:23:51.209Z,16.03
2019-02-22T09:26:20.641Z,14.90
2019-02-22T09:28:50.109Z,14.43
2019-02-22T09:31:19.592Z,15.13
2019-02-22T09:33:49.051Z,14.20
2019-02-22T09:36:18.486Z,14.90
2019-02-22T09:38:48.049Z,12.77
2019-02-22T09:41:17.590Z,12.83
2019-02-22T09:43:54.754Z,12.33
2019-02-22T09:46:18.076Z,11.50
2019-02-22T09:48:47.570Z,11.07
2019-02-22T09:51:20.364Z,10.80
2019-02-22T09:53:49.969Z,10.70
2019-02-22T09:56:19.321Z,12.33
2019-02-22T09:58:48.670Z,15.47
2019-02-22T10:01:19.128Z,15.17
2019-02-22T10:03:48.501Z,14.20
2019-02-22T10:06:17.950Z,14.47
2019-02-22T10:08:47.414Z,13.40
2019-02-22T10:11:16.855Z,14.80
2019-02-22T10:13:46.306Z,15.07
2019-02-22T10:16:15.798Z,14.40
2019-02-22T10:18:45.268Z,14.10
2019-02-22T10:21:14.755Z,14.70
2019-02-22T10:23:44.181Z,13.83
2019-02-22T10:26:13.624Z,14.37
2019-02-22T10:28:43.083Z,14.73
2019-02-22T10:31:12.568Z,13.47
2019-02-22T10:33:41.926Z,15.77
2019-02-22T10:36:11.284Z,14.83
2019-02-22T10:38:40.716Z,15.87
2019-02-22T10:41:10.176Z,16.73
2019-02-22T10:43:39.599Z,13.57
2019-02-22T10:46:08.998Z,14.67
2019-02-22T10:48:38.442Z,13.33
2019-02-22T10:51:07.918Z,13.57
2019-02-22T10:53:37.309Z,13.83
2019-02-22T10:56:06.819Z,13.93
2019-02-22T10:58:36.280Z,16.13
2019-02-22T11:01:05.748Z,15.00
2019-02-22T11:03:35.158Z,15.40
2019-02-22T11:06:04.575Z,16.47
2019-02-22T11:08:34.023Z,16.53
2019-02-22T11:11:03.568Z,16.70
2019-02-22T11:13:32.959Z,17.17
2019-02-22T11:16:02.367Z,15.47
2019-02-22T11:18:31.844Z,15.20
2019-02-22T11:21:01.275Z,16.63
2019-02-22T11:23:30.635Z,15.63
2019-02-22T11:26:00.083Z,14.87
2019-02-22T11:28:29.549Z,16.87
2019-02-22T11:30:59.000Z,15.60
2019-02-22T11:33:28.389Z,16.53
2019-02-22T11:35:57.838Z,15.63
2019-02-22T11:38:27.322Z,15.40
2019-02-22T11:40:56.767Z,15.23
2019-02-22T11:43:26.133Z,16.57
2019-02-22T11:45:55.558Z,14.60
2019-02-22T11:48:25.004Z,16.93
2019-02-22T11:50:54.509Z,17.57
2019-02-22T11:53:23.962Z,16.20
2019-02-22T11:55:53.403Z,16.40
2019-02-22T11:58:22.897Z,20.17
2019-02-22T12:00:52.339Z,19.37
2019-02-22T12:03:24.908Z,17.47
2019-02-22T12:05:52.855Z,18.40
2019-02-22T12:08:22.267Z,18.80
2019-02-22T12:10:51.743Z,16.90
2019-02-22T12:13:21.268Z,17.57
2019-02-22T12:15:50.687Z,21.03
2019-02-22T12:18:20.098Z,19.43
2019-02-22T12:20:49.576Z,18.80
2019-02-22T12:23:19.063Z,18.03
2019-02-22T12:25:48.430Z,18.33
2019-02-22T12:28:17.948Z,20.70
2019-02-22T12:30:47.431Z,23.47
2019-02-22T12:33:16.887Z,19.00
2019-02-22T12:35:46.237Z,21.00
2019-02-22T12:38:15.623Z,19.50
2019-02-22T12:40:45.035Z,19.53
2019-02-22T12:43:14.434Z,18.70
2019-02-22T12:45:43.899Z,19.67
2019-02-22T12:48:13.354Z,17.80
2019-02-22T12:50:42.848Z,17.93
2019-02-22T12:53:12.452Z,17.90
2019-02-22T12:55:41.968Z,17.43
2019-02-22T12:58:11.395Z,17.67
2019-02-22T13:00:40.819Z,17.33
2019-02-22T13:03:10.255Z,17.57
2019-02-22T13:05:39.743Z,17.20
2019-02-22T13:08:09.154Z,21.00
2019-02-22T13:10:38.555Z,18.23
2019-02-22T13:13:07.978Z,17.67
2019-02-22T13:15:37.372Z,19.47
2019-02-22T13:18:06.715Z,16.33
2019-02-22T13:20:36.224Z,16.40
2019-02-22T13:23:05.698Z,17.13
2019-02-22T13:25:35.218Z,15.00
2019-02-22T13:28:04.654Z,14.97
2019-02-22T13:30:34.032Z,17.47
2019-02-22T13:33:03.490Z,14.60
2019-02-22T13:35:33.025Z,12.53
2019-02-22T13:38:02.400Z,14.40
2019-02-22T13:40:31.864Z,14.50
2019-02-22T13:43:01.294Z,13.07
2019-02-22T13:45:30.645Z,12.83
2019-02-22T13:48:00.047Z,12.50
2019-02-22T13:50:32.675Z,12.97
2019-02-22T13:53:02.127Z,13.83
2019-02-22T13:55:31.650Z,13.87
2019-02-22T13:58:01.051Z,14.07
2019-02-22T14:00:30.472Z,14.23
2019-02-22T14:03:00.019Z,15.97
2019-02-22T14:05:29.479Z,18.10
2019-02-22T14:07:58.851Z,31.90
2019-02-22T14:10:28.347Z,16.33
2019-02-22T14:12:57.775Z,11.80
2019-02-22T14:15:37.441Z,13.33
2019-02-22T14:17:58.327Z,13.53
2019-02-22T14:20:27.700Z,12.10
2019-02-22T14:22:57.198Z,11.50
2019-02-22T14:25:26.635Z,11.40
2019-02-22T14:27:56.042Z,11.90
2019-02-22T14:30:25.526Z,11.57
2019-02-22T14:32:54.940Z,9.93
2019-02-22T14:35:24.495Z,6.73
2019-02-22T14:37:54.019Z,6.53
2019-02-22T14:40:23.372Z,6.23
2019-02-22T14:42:52.783Z,6.50
2019-02-22T14:45:22.210Z,6.53
2019-02-22T14:47:51.638Z,7.03
2019-02-22T14:50:23.107Z,7.20
2019-02-22T14:52:52.096Z,7.40
2019-02-22T14:55:21.573Z,7.70
2019-02-22T14:57:51.066Z,7.87
2019-02-22T15:00:20.501Z,6.77
2019-02-22T15:02:49.961Z,6.80
2019-02-22T15:05:19.441Z,9.27
2019-02-22T15:07:48.897Z,8.60
2019-02-22T15:10:18.920Z,6.53
2019-02-22T15:12:48.945Z,7.17
2019-02-22T15:15:18.810Z,7.90
2019-02-22T15:17:54.184Z,7.00
2019-02-22T15:20:23.616Z,7.27
2019-02-22T15:22:53.000Z,6.70
2019-02-22T15:25:22.466Z,8.90
2019-02-22T15:27:51.922Z,7.43
2019-02-22T15:30:21.354Z,8.10
2019-02-22T15:32:50.879Z,11.63
2019-02-22T15:35:20.394Z,21.90
2019-02-22T15:37:49.852Z,11.77
2019-02-22T15:40:19.237Z,10.03
2019-02-22T15:42:48.695Z,10.67
2019-02-22T15:45:18.157Z,10.67
2019-02-22T15:47:48.797Z,10.90
2019-02-22T15:50:18.839Z,10.60
2019-02-22T15:52:49.089Z,11.17
2019-02-22T15:55:18.580Z,11.27
2019-02-22T15:57:48.074Z,13.73
2019-02-22T16:00:21.090Z,14.63
2019-02-22T16:02:50.488Z,16.57
2019-02-22T16:05:26.232Z,17.70
2019-02-22T16:07:55.769Z,17.67
2019-02-22T16:10:25.204Z,17.57
2019-02-22T16:12:54.571Z,17.17
2019-02-22T16:15:24.056Z,17.60
2019-02-22T16:17:53.481Z,18.33
2019-02-22T16:20:22.872Z,20.20
2019-02-22T16:22:52.303Z,22.30
2019-02-22T16:25:21.761Z,22.57
2019-02-22T16:27:51.212Z,20.93
2019-02-22T16:30:22.041Z,21.87
2019-02-22T16:32:51.723Z,21.20
2019-02-22T16:35:21.142Z,21.73
2019-02-22T16:37:50.545Z,20.77
2019-02-22T16:40:19.977Z,23.17
2019-02-22T16:42:49.455Z,23.87
2019-02-22T16:45:18.822Z,22.90
2019-02-22T16:47:48.215Z,21.67
2019-02-22T16:50:17.686Z,22.93
2019-02-22T16:52:47.135Z,26.60
2019-02-22T16:55:16.571Z,33.27
2019-02-22T16:57:46.059Z,46.63
2019-02-22T17:00:16.460Z,40.13
2019-02-22T17:02:45.834Z,32.40
2019-02-22T17:05:15.741Z,41.60
2019-02-22T17:07:45.223Z,33.53
2019-02-22T17:10:14.760Z,32.50
2019-02-22T17:12:44.251Z,26.90
2019-02-22T17:15:13.724Z,24.53
2019-02-22T17:17:43.174Z,25.37
2019-02-22T17:20:12.555Z,25.20
2019-02-22T17:22:42.245Z,25.37
2019-02-22T17:25:13.348Z,26.83
2019-02-22T17:27:42.721Z,37.60
2019-02-22T17:30:13.384Z,45.17
2019-02-22T17:32:42.795Z,35.93
2019-02-22T17:35:12.203Z,31.53
2019-02-22T17:37:41.603Z,29.60
2019-02-22T17:40:13.043Z,27.87
2019-02-22T17:42:42.405Z,27.60
2019-02-22T17:45:11.801Z,27.47
2019-02-22T17:47:41.232Z,29.67
2019-02-22T17:50:10.645Z,30.50
2019-02-22T17:52:40.039Z,31.23
2019-02-22T17:55:09.505Z,30.80
2019-02-22T17:57:38.950Z,40.77
2019-02-22T18:00:11.853Z,44.03
2019-02-22T18:02:41.299Z,41.10
2019-02-22T18:05:10.770Z,40.60
2019-02-22T18:07:40.268Z,35.93
2019-02-22T18:10:10.042Z,33.83
2019-02-22T18:12:39.508Z,35.40
2019-02-22T18:15:09.497Z,33.43
2019-02-22T18:17:38.928Z,35.03
2019-02-22T18:20:08.815Z,37.77
2019-02-22T18:22:38.217Z,44.23
2019-02-22T18:25:08.120Z,39.97
2019-02-22T18:27:37.942Z,39.30
2019-02-22T18:30:08.965Z,35.53
2019-02-22T18:32:38.429Z,29.93
2019-02-22T18:35:08.536Z,26.57
2019-02-22T18:37:38.042Z,26.10
2019-02-22T18:40:10.017Z,24.67
2019-02-22T18:42:39.454Z,24.97
2019-02-22T18:45:08.996Z,25.47
2019-02-22T18:47:38.658Z,27.10
2019-02-22T18:50:08.895Z,28.67
2019-02-22T18:52:38.384Z,31.13
2019-02-22T18:55:08.339Z,30.27
2019-02-22T18:57:37.996Z,31.00
2019-02-22T19:00:10.253Z,28.03
2019-02-22T19:02:39.788Z,23.30
2019-02-22T19:05:09.603Z,23.90
2019-02-22T19:07:39.101Z,24.57
2019-02-22T19:10:09.801Z,22.30
2019-02-22T19:12:39.322Z,21.23
2019-02-22T19:15:10.503Z,21.03
2019-02-22T19:17:40.043Z,22.33
2019-02-22T19:20:11.429Z,23.07
2019-02-22T19:22:40.981Z,21.80
2019-02-22T19:25:10.649Z,22.30
2019-02-22T19:27:40.126Z,20.97
2019-02-22T19:30:14.609Z,20.17
2019-02-22T19:32:44.055Z,19.27
2019-02-22T19:35:13.530Z,20.80
2019-02-22T19:37:43.071Z,20.03
2019-02-22T19:40:14.601Z,22.70
2019-02-22T19:42:43.953Z,35.70
2019-02-22T19:45:13.498Z,26.20
2019-02-22T19:47:43.061Z,26.90
2019-02-22T19:50:13.110Z,26.57
2019-02-22T19:52:42.754Z,33.17
2019-02-22T19:55:13.458Z,30.30
2019-02-22T19:57:42.853Z,25.23
2019-02-22T20:00:14.663Z,24.73
2019-02-22T20:02:44.239Z,26.10
2019-02-22T20:05:14.149Z,25.53
2019-02-22T20:07:44.034Z,23.57
2019-02-22T20:10:17.799Z,22.37
2019-02-22T20:12:46.033Z,20.87
2019-02-22T20:15:16.194Z,20.23
2019-02-22T20:17:54.239Z,20.33
2019-02-22T20:20:17.104Z,21.23
2019-02-22T20:22:46.773Z,20.33
2019-02-22T20:25:16.314Z,20.80
2019-02-22T20:27:45.827Z,21.90
2019-02-22T20:30:15.892Z,20.73
2019-02-22T20:32:45.400Z,20.43
2019-02-22T20:35:16.749Z,19.00
2019-02-22T20:37:52.561Z,17.00
2019-02-22T20:40:17.285Z,14.37
2019-02-22T20:42:47.134Z,15.33
2019-02-22T20:45:16.761Z,12.40
2019-02-22T20:47:46.163Z,12.33
2019-02-22T20:50:15.543Z,11.83
2019-02-22T20:52:45.032Z,12.30
2019-02-22T20:55:14.433Z,12.67
2019-02-22T20:57:43.894Z,13.33
2019-02-22T21:00:15.527Z,12.63
2019-02-22T21:02:45.169Z,12.67
2019-02-22T21:05:14.695Z,12.97
2019-02-22T21:07:44.312Z,14.50
2019-02-22T21:10:15.281Z,14.10
2019-02-22T21:12:44.693Z,11.93
2019-02-22T21:15:14.136Z,12.00
2019-02-22T21:17:43.650Z,14.13
2019-02-22T21:20:13.471Z,14.00
2019-02-22T21:22:42.844Z,15.50
2019-02-22T21:25:12.440Z,13.47
2019-02-22T21:27:41.852Z,12.53
2019-02-22T21:30:12.969Z,11.60
2019-02-22T21:32:42.462Z,11.83
2019-02-22T21:35:11.976Z,11.07
2019-02-22T21:37:41.673Z,10.77
2019-02-22T21:40:11.279Z,12.20
2019-02-22T21:42:40.744Z,11.30
2019-02-22T21:45:10.847Z,11.67
2019-02-22T21:47:40.277Z,13.47
2019-02-22T21:50:11.523Z,14.97
2019-02-22T21:52:40.974Z,13.43
2019-02-22T21:55:10.920Z,12.70
2019-02-22T21:57:40.334Z,12.60
2019-02-22T22:00:13.162Z,11.73
2019-02-22T22:02:42.500Z,11.87
2019-02-22T22:05:11.939Z,11.33
2019-02-22T22:07:41.300Z,14.10
2019-02-22T22:10:10.820Z,12.50
2019-02-22T22:12:40.257Z,12.93
2019-02-22T22:15:10.978Z,13.17
2019-02-22T22:17:40.850Z,13.70
2019-02-22T22:20:10.261Z,12.83
2019-02-22T22:22:39.805Z,13.37
2019-02-22T22:25:10.041Z,12.33
2019-02-22T22:27:39.498Z,11.60
2019-02-22T22:30:10.027Z,11.67
2019-02-22T22:32:39.447Z,14.97
2019-02-22T22:35:09.678Z,15.23
2019-02-22T22:37:39.454Z,15.57
2019-02-22T22:40:09.711Z,13.57
2019-02-22T22:42:39.181Z,13.10
2019-02-22T22:45:09.303Z,13.53
2019-02-22T22:47:38.689Z,12.57
2019-02-22T22:50:10.069Z,12.77
2019-02-22T22:52:39.515Z,13.43
2019-02-22T22:55:09.328Z,13.57
2019-02-22T22:57:38.785Z,12.83
2019-02-22T23:00:55.940Z,11.87
2019-02-22T23:03:25.403Z,12.50
2019-02-22T23:05:54.867Z,12.30
2019-02-22T23:08:24.349Z,13.27
2019-02-22T23:10:53.828Z,14.87
2019-02-22T23:13:23.393Z,15.30
2019-02-22T23:15:52.878Z,13.30
2019-02-22T23:18:22.307Z,14.13
2019-02-22T23:20:54.741Z,15.27
2019-02-22T23:23:24.141Z,18.17
2019-02-22T23:25:53.627Z,20.53
2019-02-22T23:28:23.052Z,22.83
2019-02-22T23:30:52.423Z,37.33
2019-02-22T23:33:21.928Z,17.50
2019-02-22T23:35:51.409Z,29.77
2019-02-22T23:38:20.891Z,20.90
2019-02-22T23:40:50.335Z,28.73
2019-02-22T23:43:19.772Z,41.17
2019-02-22T23:45:49.292Z,31.07
2019-02-22T23:48:18.665Z,28.47
2019-02-22T23:50:48.167Z,23.03
2019-02-22T23:53:17.602Z,16.60
2019-02-22T23:55:47.072Z,16.87
2019-02-22T23:58:16.595Z,14.13
